createdAt,value
2022-11-12T00:02:13.838Z,4.95
2022-11-12T00:05:18.090Z,6.53
2022-11-12T00:08:21.621Z,6.07
2022-11-12T00:11:15.821Z,6.05
2022-11-12T00:14:08.761Z,6.25
2022-11-12T00:17:00.446Z,5.03
2022-11-12T00:19:54.578Z,5.60
2022-11-12T00:22:45.904Z,5.70
2022-11-12T00:25:33.949Z,5.38
2022-11-12T00:28:29.537Z,4.80
2022-11-12T00:31:28.623Z,5.80
2022-11-12T00:34:24.776Z,5.25
2022-11-12T00:37:18.134Z,5.03
2022-11-12T00:40:10.279Z,5.63
2022-11-12T00:42:57.934Z,6.90
2022-11-12T00:45:45.449Z,4.45
2022-11-12T00:48:32.566Z,5.32
2022-11-12T00:51:20.792Z,6.35
2022-11-12T00:54:08.840Z,4.18
2022-11-12T00:56:55.709Z,5.20
2022-11-12T00:59:42.651Z,3.95
2022-11-12T01:02:29.683Z,4.70
2022-11-12T01:05:16.930Z,5.30
2022-11-12T01:08:05.753Z,4.95
2022-11-12T01:10:53.216Z,6.10
2022-11-12T01:13:44.367Z,5.00
2022-11-12T01:16:35.688Z,5.22
2022-11-12T01:19:23.083Z,5.22
2022-11-12T01:22:10.071Z,4.90
2022-11-12T01:24:58.189Z,5.45
2022-11-12T01:27:45.039Z,4.40
2022-11-12T01:30:32.009Z,4.93
2022-11-12T01:33:18.997Z,6.28
2022-11-12T01:36:07.156Z,5.13
2022-11-12T01:38:55.280Z,4.18
2022-11-12T01:41:44.437Z,4.90
2022-11-12T01:44:43.211Z,6.30
2022-11-12T01:47:35.245Z,6.05
2022-11-12T01:50:29.245Z,6.13
2022-11-12T01:53:16.548Z,4.68
2022-11-12T01:56:07.529Z,5.40
2022-11-12T01:59:03.441Z,4.93
2022-11-12T02:01:50.770Z,4.53
2022-11-12T02:04:41.659Z,5.85
2022-11-12T02:07:29.756Z,4.40
2022-11-12T02:10:17.455Z,5.63
2022-11-12T02:13:21.772Z,5.22
2022-11-12T02:16:12.251Z,4.20
2022-11-12T02:19:02.262Z,5.03
2022-11-12T02:21:50.744Z,5.03
2022-11-12T02:24:40.508Z,4.97
2022-11-12T02:27:28.960Z,4.50
2022-11-12T02:30:16.543Z,5.05
2022-11-12T02:33:03.985Z,4.05
2022-11-12T02:35:50.951Z,5.38
2022-11-12T02:38:39.250Z,4.38
2022-11-12T02:41:26.615Z,4.00
2022-11-12T02:44:13.891Z,3.58
2022-11-12T02:47:01.693Z,4.68
2022-11-12T02:49:49.283Z,4.30
2022-11-12T02:52:36.316Z,4.88
2022-11-12T02:55:25.286Z,3.40
2022-11-12T02:58:12.315Z,5.05
2022-11-12T03:00:59.817Z,4.28
2022-11-12T03:03:50.278Z,3.70
2022-11-12T03:06:37.588Z,4.00
2022-11-12T03:09:25.278Z,4.90
2022-11-12T03:12:13.843Z,3.80
2022-11-12T03:15:01.621Z,3.67
2022-11-12T03:17:48.801Z,5.13
2022-11-12T03:20:36.308Z,3.55
2022-11-12T03:23:24.197Z,4.07
2022-11-12T03:26:11.604Z,4.82
2022-11-12T03:29:00.467Z,4.22
2022-11-12T03:31:47.529Z,3.50
2022-11-12T03:34:35.049Z,4.00
2022-11-12T03:37:22.611Z,4.28
2022-11-12T03:40:11.680Z,3.67
2022-11-12T03:42:59.076Z,4.85
2022-11-12T03:45:48.132Z,4.80
2022-11-12T03:48:35.284Z,4.95
2022-11-12T03:51:22.977Z,4.40
2022-11-12T03:54:10.198Z,3.92
2022-11-12T03:56:57.523Z,4.78
2022-11-12T03:59:45.170Z,3.75
2022-11-12T04:02:34.232Z,5.15
2022-11-12T04:05:39.283Z,4.28
2022-11-12T04:08:39.670Z,4.03
2022-11-12T04:11:27.118Z,4.45
2022-11-12T04:14:14.595Z,3.80
2022-11-12T04:17:19.505Z,4.80
2022-11-12T04:20:27.838Z,4.20
2022-11-12T04:23:14.855Z,3.90
2022-11-12T04:26:34.325Z,4.07
2022-11-12T04:29:39.138Z,4.30
2022-11-12T04:32:27.172Z,4.10
2022-11-12T04:35:15.896Z,4.00
2022-11-12T04:38:03.189Z,4.47
2022-11-12T04:41:08.087Z,4.50
2022-11-12T04:44:12.799Z,4.32
2022-11-12T04:47:00.696Z,4.85
2022-11-12T04:49:47.875Z,3.88
2022-11-12T04:52:36.564Z,4.55
2022-11-12T04:55:23.949Z,5.30
2022-11-12T04:58:11.235Z,3.42
2022-11-12T05:00:58.787Z,4.90
2022-11-12T05:03:46.743Z,4.30
2022-11-12T05:06:52.946Z,4.20
2022-11-12T05:09:42.318Z,4.35
2022-11-12T05:12:29.550Z,4.75
2022-11-12T05:15:16.919Z,4.65
2022-11-12T05:18:04.501Z,3.70
2022-11-12T05:20:54.386Z,4.45
2022-11-12T05:23:41.496Z,4.57
2022-11-12T05:26:30.632Z,3.85
2022-11-12T05:29:20.033Z,5.18
2022-11-12T05:32:08.843Z,4.55
2022-11-12T05:34:56.255Z,4.25
2022-11-12T05:37:45.306Z,5.00
2022-11-12T05:40:33.012Z,4.63
2022-11-12T05:43:21.875Z,3.97
2022-11-12T05:46:09.356Z,4.30
2022-11-12T05:48:56.650Z,4.78
2022-11-12T05:51:44.648Z,4.75
2022-11-12T05:54:32.056Z,4.50
2022-11-12T05:57:19.323Z,4.72
2022-11-12T06:00:10.448Z,4.93
2022-11-12T06:02:59.376Z,4.45
2022-11-12T06:05:46.933Z,4.18
2022-11-12T06:08:34.153Z,4.75
2022-11-12T06:11:21.275Z,4.95
2022-11-12T06:14:08.355Z,5.13
2022-11-12T06:16:57.474Z,4.97
2022-11-12T06:19:47.952Z,5.60
2022-11-12T06:22:35.507Z,5.35
2022-11-12T06:25:22.809Z,5.25
2022-11-12T06:28:10.315Z,4.55
2022-11-12T06:30:58.615Z,4.97
2022-11-12T06:33:47.786Z,4.78
2022-11-12T06:36:35.319Z,4.90
2022-11-12T06:39:22.465Z,4.88
2022-11-12T06:42:10.086Z,5.30
2022-11-12T06:44:57.280Z,5.70
2022-11-12T06:47:44.833Z,5.30
2022-11-12T06:50:33.494Z,5.38
2022-11-12T06:53:24.274Z,6.07
2022-11-12T06:56:12.131Z,6.75
2022-11-12T06:58:59.809Z,6.35
2022-11-12T07:01:47.250Z,6.60
2022-11-12T07:04:35.068Z,5.80
2022-11-12T07:07:23.727Z,6.68
2022-11-12T07:10:11.845Z,4.75
2022-11-12T07:12:59.792Z,7.00
2022-11-12T07:15:47.268Z,5.15
2022-11-12T07:18:36.105Z,5.80
2022-11-12T07:21:23.185Z,4.53
2022-11-12T07:24:12.687Z,4.75
2022-11-12T07:26:59.641Z,6.28
2022-11-12T07:29:48.499Z,6.10
2022-11-12T07:32:41.930Z,5.70
2022-11-12T07:35:31.583Z,5.78
2022-11-12T07:38:18.557Z,5.60
2022-11-12T07:41:11.496Z,5.65
2022-11-12T07:43:58.944Z,5.13
2022-11-12T07:46:46.325Z,6.85
2022-11-12T07:49:34.269Z,4.65
2022-11-12T07:52:21.559Z,5.20
2022-11-12T07:55:09.897Z,6.07
2022-11-12T07:58:01.325Z,5.63
2022-11-12T08:00:48.706Z,5.05
2022-11-12T08:03:36.228Z,5.10
2022-11-12T08:06:23.872Z,6.05
2022-11-12T08:09:11.807Z,6.05
2022-11-12T08:11:59.171Z,5.63
2022-11-12T08:14:48.370Z,7.13
2022-11-12T08:17:40.717Z,4.90
2022-11-12T08:20:28.377Z,5.82
2022-11-12T08:23:16.149Z,6.57
2022-11-12T08:26:04.902Z,6.05
2022-11-12T08:28:52.153Z,8.50
2022-11-12T08:31:41.312Z,7.00
2022-11-12T08:34:28.966Z,7.47
2022-11-12T08:37:17.588Z,6.70
2022-11-12T08:40:05.613Z,5.57
2022-11-12T08:43:00.038Z,6.05
2022-11-12T08:45:48.726Z,6.30
2022-11-12T08:48:40.009Z,5.47
2022-11-12T08:51:27.535Z,6.03
2022-11-12T08:54:15.343Z,6.77
2022-11-12T08:57:03.152Z,6.37
2022-11-12T08:59:50.667Z,6.73
2022-11-12T09:02:38.233Z,6.40
2022-11-12T09:05:27.411Z,8.67
2022-11-12T09:08:16.926Z,6.70
2022-11-12T09:11:05.090Z,8.07
2022-11-12T09:13:55.272Z,7.57
2022-11-12T09:16:42.700Z,8.43
2022-11-12T09:19:30.319Z,6.60
2022-11-12T09:22:19.434Z,7.77
2022-11-12T09:25:08.053Z,8.97
2022-11-12T09:27:55.938Z,9.00
2022-11-12T09:30:46.615Z,8.37
2022-11-12T09:33:36.121Z,8.70
2022-11-12T09:36:23.337Z,9.83
2022-11-12T09:39:12.536Z,10.97
2022-11-12T09:42:02.066Z,8.47
2022-11-12T09:44:58.871Z,8.40
2022-11-12T09:47:53.027Z,8.50
2022-11-12T09:54:54.383Z,6.77
2022-11-12T10:00:57.359Z,8.77
2022-11-12T10:03:58.065Z,9.10
2022-11-12T10:06:52.978Z,8.23
2022-11-12T10:09:59.759Z,12.47
2022-11-12T10:13:01.165Z,10.77
2022-11-12T10:16:22.905Z,8.63
2022-11-12T10:19:32.015Z,9.30
2022-11-12T10:22:42.138Z,8.33
2022-11-12T10:25:33.481Z,8.40
2022-11-12T10:28:33.012Z,9.17
2022-11-12T10:31:24.137Z,7.10
2022-11-12T10:34:18.819Z,7.70
2022-11-12T10:37:12.108Z,8.67
2022-11-12T10:39:59.974Z,8.73
2022-11-12T10:43:00.742Z,8.97
2022-11-12T10:45:50.475Z,8.10
2022-11-12T10:48:38.121Z,9.03
2022-11-12T10:51:29.017Z,7.90
2022-11-12T10:54:30.869Z,8.00
2022-11-12T10:57:24.832Z,8.80
2022-11-12T11:00:23.345Z,9.83
2022-11-12T11:03:20.901Z,9.07
2022-11-12T11:06:24.086Z,11.23
2022-11-12T11:09:18.264Z,9.37
2022-11-12T11:12:07.342Z,10.10
2022-11-12T11:15:09.157Z,8.20
2022-11-12T11:17:58.562Z,7.97
2022-11-12T11:20:55.909Z,7.67
2022-11-12T11:23:55.465Z,6.77
2022-11-12T11:26:53.608Z,6.37
2022-11-12T11:29:58.301Z,8.03
2022-11-12T11:33:25.576Z,9.43
2022-11-12T11:36:23.143Z,8.23
2022-11-12T11:39:21.096Z,8.90
2022-11-12T11:42:34.621Z,7.10
2022-11-12T11:45:30.425Z,9.03
2022-11-12T11:48:30.944Z,9.37
2022-11-12T11:51:37.838Z,9.20
2022-11-12T11:54:42.065Z,7.40
2022-11-12T11:57:35.282Z,8.13
2022-11-12T12:00:25.613Z,6.47
2022-11-12T12:03:22.916Z,8.13
2022-11-12T12:06:21.494Z,7.23
2022-11-12T12:09:30.792Z,7.70
2022-11-12T12:12:30.447Z,6.30
2022-11-12T12:15:36.702Z,5.60
2022-11-12T12:18:35.987Z,6.13
2022-11-12T12:21:27.443Z,6.67
2022-11-12T12:24:20.766Z,5.93
2022-11-12T12:27:14.595Z,6.27
2022-11-12T12:30:08.478Z,7.20
2022-11-12T12:32:59.870Z,6.80
2022-11-12T12:35:55.613Z,7.27
2022-11-12T12:38:49.633Z,7.07
2022-11-12T12:41:47.031Z,6.80
2022-11-12T12:45:04.881Z,6.83
2022-11-12T12:47:55.534Z,6.20
2022-11-12T12:50:44.824Z,7.80
2022-11-12T12:53:40.939Z,8.17
2022-11-12T12:56:49.888Z,7.63
2022-11-12T12:59:38.509Z,8.40
2022-11-12T13:02:28.291Z,7.37
2022-11-12T13:05:34.447Z,7.37
2022-11-12T13:08:26.129Z,6.60
2022-11-12T13:12:06.956Z,6.33
2022-11-12T13:15:11.934Z,8.53
2022-11-12T13:17:59.624Z,7.00
2022-11-12T13:21:11.627Z,7.47
2022-11-12T13:24:08.242Z,8.90
2022-11-12T13:26:59.829Z,7.80
2022-11-12T13:29:49.164Z,6.63
2022-11-12T13:32:40.119Z,8.27
2022-11-12T13:35:31.290Z,9.97
2022-11-12T13:38:20.357Z,7.53
2022-11-12T13:41:16.389Z,7.40
2022-11-12T13:44:11.488Z,7.70
2022-11-12T13:46:59.885Z,7.40
2022-11-12T13:49:50.186Z,7.77
2022-11-12T13:52:38.682Z,13.67
2022-11-12T13:55:26.983Z,6.13
2022-11-12T13:58:22.483Z,7.20
2022-11-12T14:01:22.716Z,6.40
2022-11-12T14:04:14.586Z,9.10
2022-11-12T14:07:16.208Z,7.87
2022-11-12T14:14:43.592Z,7.60
2022-11-12T14:17:42.072Z,6.40
2022-11-12T14:20:36.410Z,6.97
2022-11-12T14:23:26.606Z,7.23
2022-11-12T14:26:16.398Z,6.20
2022-11-12T14:29:05.054Z,7.47
2022-11-12T14:32:03.996Z,7.53
2022-11-12T14:34:56.393Z,7.50
2022-11-12T14:37:47.883Z,7.77
2022-11-12T14:40:39.118Z,8.40
2022-11-12T14:43:34.538Z,8.87
2022-11-12T14:46:26.831Z,7.77
2022-11-12T14:49:25.154Z,10.60
2022-11-12T14:52:20.074Z,9.10
2022-11-12T14:55:13.730Z,9.80
2022-11-12T14:58:02.693Z,12.50
2022-11-12T15:00:52.562Z,11.97
2022-11-12T15:03:40.929Z,10.27
2022-11-12T15:06:33.920Z,10.30
2022-11-12T15:09:36.459Z,16.90
2022-11-12T15:12:27.978Z,24.13
2022-11-12T15:15:22.808Z,15.73
2022-11-12T15:18:19.531Z,23.20
2022-11-12T15:21:15.411Z,21.23
2022-11-12T15:24:09.540Z,13.23
2022-11-12T15:27:00.863Z,13.10
2022-11-12T15:29:48.999Z,16.53
2022-11-12T15:32:37.203Z,13.17
2022-11-12T15:35:37.067Z,13.50
2022-11-12T15:38:28.309Z,12.40
2022-11-12T15:41:26.361Z,13.37
2022-11-12T15:44:15.777Z,13.33
2022-11-12T15:47:04.721Z,14.17
2022-11-12T15:49:53.702Z,14.77
2022-11-12T15:52:42.186Z,14.13
2022-11-12T15:55:30.394Z,15.10
2022-11-12T15:58:21.508Z,15.67
2022-11-12T16:01:13.855Z,15.23
2022-11-12T16:04:01.485Z,14.97
2022-11-12T16:06:49.293Z,16.67
2022-11-12T16:09:37.047Z,15.00
2022-11-12T16:12:25.603Z,17.47
2022-11-12T16:15:16.097Z,17.30
2022-11-12T16:18:05.237Z,17.43
2022-11-12T16:20:53.390Z,16.90
2022-11-12T16:23:41.593Z,17.70
2022-11-12T16:26:32.166Z,20.10
2022-11-12T16:29:20.379Z,17.67
2022-11-12T16:32:08.628Z,18.07
2022-11-12T16:35:01.269Z,22.77
2022-11-12T16:37:50.133Z,35.03
2022-11-12T16:40:38.071Z,23.17
2022-11-12T16:43:26.306Z,23.97
2022-11-12T16:46:26.208Z,27.37
2022-11-12T16:49:15.029Z,25.08
2022-11-12T16:52:04.519Z,27.30
2022-11-12T16:54:52.516Z,21.75
2022-11-12T16:57:40.373Z,24.83
2022-11-12T17:00:29.259Z,26.93
2022-11-12T17:03:17.443Z,24.70
2022-11-12T17:06:05.782Z,28.07
2022-11-12T17:08:57.505Z,26.30
2022-11-12T17:11:50.063Z,27.70
2022-11-12T17:14:43.856Z,24.27
2022-11-12T17:17:32.707Z,24.60
2022-11-12T17:20:20.918Z,26.42
2022-11-12T17:23:08.978Z,27.20
2022-11-12T17:26:13.312Z,27.70
2022-11-12T17:29:06.686Z,27.85
2022-11-12T17:31:57.485Z,28.30
2022-11-12T17:34:45.867Z,36.60
2022-11-12T17:37:33.958Z,31.30
2022-11-12T17:40:22.406Z,32.03
2022-11-12T17:43:14.893Z,30.50
2022-11-12T17:46:03.565Z,30.25
2022-11-12T17:48:55.022Z,29.58
2022-11-12T17:51:43.365Z,32.90
2022-11-12T17:54:31.470Z,30.38
2022-11-12T17:57:21.015Z,30.13
2022-11-12T18:00:12.645Z,30.77
2022-11-12T18:03:00.396Z,29.08
2022-11-12T18:05:56.609Z,31.95
2022-11-12T18:08:45.114Z,34.38
2022-11-12T18:11:41.725Z,30.30
2022-11-12T18:14:29.697Z,31.60
2022-11-12T18:17:20.535Z,34.15
2022-11-12T18:20:09.716Z,30.85
2022-11-12T18:22:57.912Z,31.67
2022-11-12T18:25:46.207Z,32.13
2022-11-12T18:28:35.112Z,34.42
2022-11-12T18:31:24.386Z,33.25
2022-11-12T18:34:16.258Z,33.22
2022-11-12T18:37:04.087Z,33.83
2022-11-12T18:39:51.586Z,40.30
2022-11-12T18:42:39.409Z,38.40
2022-11-12T18:45:26.914Z,40.05
2022-11-12T18:48:14.408Z,40.13
2022-11-12T18:51:04.944Z,39.85
2022-11-12T18:53:52.808Z,41.85
2022-11-12T18:56:42.549Z,41.10
2022-11-12T18:59:32.644Z,36.83
2022-11-12T19:02:23.449Z,38.55
2022-11-12T19:05:11.262Z,36.47
2022-11-12T19:08:00.371Z,38.72
2022-11-12T19:10:48.334Z,38.60
2022-11-12T19:13:36.867Z,37.40
2022-11-12T19:16:24.989Z,35.97
2022-11-12T19:19:15.976Z,36.33
2022-11-12T19:22:03.651Z,38.92
2022-11-12T19:24:54.818Z,38.83
2022-11-12T19:27:42.415Z,34.58
2022-11-12T19:30:30.257Z,37.47
2022-11-12T19:33:21.102Z,38.92
2022-11-12T19:36:11.504Z,36.65
2022-11-12T22:01:43.453Z,23.98
2022-11-12T22:04:31.454Z,26.88
2022-11-12T22:07:19.132Z,27.83
2022-11-12T22:10:07.606Z,30.52
2022-11-12T22:13:24.818Z,31.70
2022-11-12T22:16:07.078Z,26.48
2022-11-12T22:18:58.093Z,32.17
2022-11-12T22:21:45.567Z,27.77
2022-11-12T22:24:33.210Z,30.13
2022-11-12T22:27:20.943Z,29.90
2022-11-12T22:30:10.052Z,29.50
2022-11-12T22:32:58.009Z,28.83
2022-11-12T22:35:47.295Z,24.67
2022-11-12T22:38:36.939Z,28.50
2022-11-12T22:41:26.566Z,25.50
2022-11-12T22:44:14.375Z,27.77
2022-11-12T22:47:02.187Z,27.30
2022-11-12T22:49:50.221Z,21.53
2022-11-12T22:52:39.151Z,22.60
2022-11-12T22:55:27.011Z,22.10
2022-11-12T22:58:14.993Z,19.27
2022-11-12T23:01:02.563Z,20.07
2022-11-12T23:03:50.674Z,21.17
2022-11-12T23:06:38.663Z,21.00
2022-11-12T23:09:27.513Z,22.37
2022-11-12T23:12:14.804Z,20.00
2022-11-12T23:15:02.142Z,21.77
2022-11-12T23:17:49.856Z,20.53
2022-11-12T23:20:37.759Z,19.93
2022-11-12T23:23:25.467Z,20.40
2022-11-12T23:26:16.836Z,19.37
2022-11-12T23:29:04.739Z,22.73
2022-11-12T23:31:52.276Z,20.37
2022-11-12T23:34:39.892Z,21.10
2022-11-12T23:37:27.609Z,17.90
2022-11-12T23:40:14.942Z,20.00
2022-11-12T23:43:03.925Z,19.50
2022-11-12T23:45:52.409Z,20.30
2022-11-12T23:48:40.749Z,20.33
2022-11-12T23:51:28.556Z,20.10
2022-11-12T23:54:16.044Z,20.10
2022-11-12T23:57:03.695Z,19.73
2022-11-12T23:59:53.020Z,21.33
